createdAt,value
2022-12-27T17:08:31.536Z,22.95
2022-12-27T17:11:04.884Z,16.95
2022-12-27T17:13:51.094Z,24.80
2022-12-27T17:16:24.252Z,32.40
2022-12-27T17:18:54.874Z,25.63
2022-12-27T17:21:30.463Z,17.33
2022-12-27T17:24:15.489Z,22.98
2022-12-27T17:27:10.829Z,30.77
2022-12-27T17:30:07.057Z,36.08
2022-12-27T17:32:56.328Z,33.53
2022-12-27T17:35:47.140Z,37.28
2022-12-27T17:38:37.738Z,45.70
2022-12-27T17:41:15.523Z,44.25
2022-12-27T17:44:33.022Z,45.70
2022-12-27T17:47:37.220Z,31.75
2022-12-27T17:50:13.949Z,33.95
2022-12-27T17:53:00.675Z,27.15
2022-12-27T17:55:48.196Z,32.03
2022-12-27T17:58:17.203Z,32.65
2022-12-27T18:01:11.522Z,43.28
2022-12-27T18:03:48.348Z,35.85
2022-12-27T18:06:20.128Z,31.50
2022-12-27T18:08:49.878Z,21.60
2022-12-27T18:11:23.507Z,20.48
2022-12-27T18:13:59.145Z,22.77
2022-12-27T18:16:53.109Z,25.77
2022-12-27T18:19:21.108Z,44.55
2022-12-27T18:21:57.769Z,50.85
2022-12-27T18:24:30.339Z,65.40
2022-12-27T18:27:14.745Z,92.28
2022-12-27T18:29:43.192Z,70.15
2022-12-27T18:32:16.359Z,43.92
2022-12-27T18:35:00.388Z,52.58
2022-12-27T18:37:28.840Z,58.53
2022-12-27T18:40:01.091Z,57.50
2022-12-27T18:42:40.044Z,42.45
2022-12-27T18:45:22.842Z,42.45
2022-12-27T18:47:54.671Z,49.88
2022-12-27T18:50:33.600Z,36.92
2022-12-27T18:53:07.639Z,32.13
2022-12-27T18:55:36.556Z,63.50
2022-12-27T18:58:20.733Z,46.10
2022-12-27T19:01:06.171Z,44.88
2022-12-27T19:03:40.444Z,40.60
2022-12-27T19:06:13.453Z,45.88
2022-12-27T19:08:53.155Z,60.30
2022-12-27T19:11:25.748Z,85.55
2022-12-27T19:13:58.526Z,78.50
2022-12-27T19:16:31.642Z,53.22
2022-12-27T19:19:10.199Z,41.08
2022-12-27T19:21:40.130Z,53.70
2022-12-27T19:24:29.013Z,58.38
2022-12-27T19:27:15.239Z,59.67
2022-12-27T19:29:53.072Z,47.80
2022-12-27T19:32:33.903Z,73.43
2022-12-27T19:35:04.730Z,96.38
2022-12-27T19:40:01.925Z,70.22
2022-12-27T19:42:35.059Z,59.88
2022-12-27T19:45:03.474Z,62.58
2022-12-27T19:47:32.364Z,61.42
2022-12-27T19:50:00.112Z,50.92
2022-12-27T19:52:28.308Z,46.28
2022-12-27T19:55:05.850Z,49.55
2022-12-27T19:57:33.627Z,65.10
2022-12-27T20:00:05.485Z,58.42
2022-12-27T20:02:38.848Z,64.57
2022-12-27T20:05:07.597Z,67.20
2022-12-27T20:07:36.544Z,63.22
2022-12-27T20:10:05.326Z,54.55
2022-12-27T20:12:33.180Z,39.72
2022-12-27T20:15:01.158Z,54.05
2022-12-27T20:17:32.556Z,72.55
2022-12-27T20:20:00.381Z,71.13
2022-12-27T20:22:28.167Z,74.97
2022-12-27T20:24:55.985Z,77.32
2022-12-27T20:27:24.030Z,44.40
